createdAt,value
2022-09-07T00:00:00.763Z,33.77
2022-09-07T00:00:30.777Z,33.74
2022-09-07T00:01:00.801Z,33.73
2022-09-07T00:01:30.814Z,33.76
2022-09-07T00:02:00.836Z,33.74
2022-09-07T00:02:30.910Z,33.69
2022-09-07T00:03:01.006Z,33.66
2022-09-07T00:03:31.072Z,33.66
2022-09-07T00:04:01.085Z,33.69
2022-09-07T00:04:31.156Z,33.79
2022-09-07T00:05:01.213Z,33.69
2022-09-07T00:05:31.230Z,33.80
2022-09-07T00:06:01.248Z,33.82
2022-09-07T00:06:31.270Z,33.83
2022-09-07T00:07:01.284Z,33.76
2022-09-07T00:07:31.301Z,33.77
2022-09-07T00:08:01.317Z,33.83
2022-09-07T00:08:31.518Z,33.84
2022-09-07T00:09:01.376Z,33.80
2022-09-07T00:09:31.395Z,33.79
2022-09-07T00:10:01.447Z,33.72
2022-09-07T00:10:31.463Z,33.79
2022-09-07T00:11:01.478Z,33.80
2022-09-07T00:11:31.497Z,33.86
2022-09-07T00:12:01.513Z,33.76
2022-09-07T00:12:31.577Z,33.85
2022-09-07T00:13:01.600Z,33.85
2022-09-07T00:13:31.617Z,33.83
2022-09-07T00:14:01.633Z,33.85
2022-09-07T00:14:31.647Z,33.76
2022-09-07T00:15:01.660Z,33.77
2022-09-07T00:15:31.680Z,33.86
2022-09-07T00:16:01.766Z,33.81
2022-09-07T00:16:31.795Z,33.88
2022-09-07T00:17:01.783Z,33.81
2022-09-07T00:17:31.798Z,33.77
2022-09-07T00:18:01.811Z,33.83
2022-09-07T00:18:31.878Z,33.86
2022-09-07T00:19:01.862Z,33.80
2022-09-07T00:19:31.873Z,33.85
2022-09-07T00:20:01.887Z,33.74
2022-09-07T00:20:31.910Z,33.83
2022-09-07T00:21:01.928Z,33.73
2022-09-07T00:21:31.939Z,33.86
2022-09-07T00:22:01.954Z,33.92
2022-09-07T00:22:31.967Z,33.97
2022-09-07T00:23:01.981Z,33.90
2022-09-07T00:23:32.001Z,33.94
2022-09-07T00:24:02.016Z,33.86
2022-09-07T00:24:32.033Z,33.89
2022-09-07T00:25:02.050Z,33.84
2022-09-07T00:25:32.273Z,33.76
2022-09-07T00:26:02.152Z,33.79
2022-09-07T00:26:32.166Z,33.84
2022-09-07T00:27:02.180Z,33.73
2022-09-07T00:27:32.197Z,33.95
2022-09-07T00:28:02.215Z,33.89
2022-09-07T00:28:32.374Z,33.94
2022-09-07T00:29:02.355Z,33.78
2022-09-07T00:29:32.370Z,33.92
2022-09-07T00:30:02.385Z,33.90
2022-09-07T00:30:32.406Z,33.90
2022-09-07T00:31:02.481Z,33.84
2022-09-07T00:31:32.584Z,33.87
2022-09-07T00:32:02.577Z,33.93
2022-09-07T00:32:32.595Z,33.95
2022-09-07T00:33:02.615Z,34.00
2022-09-07T00:33:32.634Z,33.98
2022-09-07T00:34:02.650Z,34.01
2022-09-07T00:34:32.670Z,33.90
2022-09-07T00:35:02.682Z,33.93
2022-09-07T00:35:32.697Z,33.87
2022-09-07T00:36:02.721Z,33.92
2022-09-07T00:36:32.745Z,33.95
2022-09-07T00:37:02.755Z,33.93
2022-09-07T00:37:32.800Z,33.82
2022-09-07T00:38:02.814Z,33.92
2022-09-07T00:38:32.832Z,33.88
2022-09-07T00:39:02.848Z,33.98
2022-09-07T00:39:32.915Z,33.91
2022-09-07T00:40:03.015Z,34.02
2022-09-07T00:40:32.942Z,34.04
2022-09-07T00:41:02.962Z,33.99
2022-09-07T00:41:32.982Z,34.02
2022-09-07T00:42:02.997Z,34.00
2022-09-07T00:42:33.104Z,33.95
2022-09-07T00:43:03.210Z,33.99
2022-09-07T00:43:33.324Z,34.05
2022-09-07T00:44:03.424Z,34.00
2022-09-07T00:44:33.527Z,34.00
2022-09-07T00:45:03.634Z,34.10
2022-09-07T00:45:33.747Z,33.99
2022-09-07T00:46:03.950Z,34.05
2022-09-07T00:46:34.014Z,34.00
2022-09-07T00:47:04.004Z,34.03
2022-09-07T00:47:34.112Z,34.00
2022-09-07T00:48:04.225Z,34.00
2022-09-07T00:48:34.327Z,33.99
2022-09-07T00:49:04.427Z,34.06
2022-09-07T00:49:34.534Z,34.05
2022-09-07T00:50:04.643Z,34.02
2022-09-07T00:50:34.751Z,34.03
2022-09-07T00:51:04.856Z,34.03
2022-09-07T00:51:34.963Z,34.14
2022-09-07T00:52:05.074Z,34.05
2022-09-07T00:52:35.098Z,34.08
2022-09-07T00:53:05.114Z,34.11
2022-09-07T00:53:35.130Z,34.03
2022-09-07T00:54:05.147Z,34.00
2022-09-07T00:54:35.166Z,34.14
2022-09-07T00:55:05.184Z,34.11
2022-09-07T00:55:35.207Z,34.03
2022-09-07T00:56:05.223Z,34.02
2022-09-07T00:56:35.236Z,34.06
2022-09-07T00:57:05.256Z,34.08
2022-09-07T00:57:35.275Z,34.14
2022-09-07T00:58:05.291Z,34.08
2022-09-07T00:58:35.310Z,34.08
2022-09-07T00:59:05.322Z,34.16
2022-09-07T00:59:35.338Z,34.06
2022-09-07T01:00:05.364Z,34.09
2022-09-07T01:00:35.381Z,34.03
2022-09-07T01:01:05.401Z,34.05
2022-09-07T01:01:35.573Z,34.11
2022-09-07T01:02:05.687Z,34.22
2022-09-07T01:02:35.744Z,34.03
2022-09-07T01:03:05.890Z,34.03
2022-09-07T01:03:35.821Z,34.05
2022-09-07T01:04:05.857Z,34.03
2022-09-07T01:04:35.883Z,34.09
2022-09-07T01:05:09.384Z,34.09
2022-09-07T01:05:35.978Z,34.09
2022-09-07T01:06:05.999Z,34.16
2022-09-07T01:06:36.033Z,34.20
2022-09-07T01:07:06.039Z,34.17
2022-09-07T01:07:36.057Z,34.04
2022-09-07T01:08:06.085Z,34.12
2022-09-07T01:08:36.103Z,34.12
2022-09-07T01:09:06.123Z,34.12
2022-09-07T01:09:36.143Z,34.07
2022-09-07T01:10:06.161Z,34.14
2022-09-07T01:10:36.177Z,34.21
2022-09-07T01:11:06.200Z,34.15
2022-09-07T01:11:36.217Z,34.09
2022-09-07T01:12:06.239Z,34.17
2022-09-07T01:12:36.261Z,34.15
2022-09-07T01:13:06.279Z,34.12
2022-09-07T01:13:36.294Z,34.10
2022-09-07T01:14:06.314Z,34.26
2022-09-07T01:14:36.335Z,34.10
2022-09-07T01:15:06.393Z,34.17
2022-09-07T01:15:36.477Z,34.15
2022-09-07T01:16:06.586Z,34.15
2022-09-07T01:16:36.476Z,34.23
2022-09-07T01:17:06.491Z,34.15
2022-09-07T01:17:36.511Z,34.14
2022-09-07T01:18:06.532Z,34.16
2022-09-07T01:18:36.550Z,34.15
2022-09-07T01:19:06.575Z,34.12
2022-09-07T01:19:36.605Z,34.26
2022-09-07T01:20:06.636Z,34.20
2022-09-07T01:20:36.651Z,34.15
2022-09-07T01:21:06.666Z,34.17
2022-09-07T01:21:36.688Z,34.21
2022-09-07T01:22:06.707Z,34.16
2022-09-07T01:22:36.730Z,34.10
2022-09-07T01:23:06.746Z,34.09
2022-09-07T01:23:36.779Z,34.12
2022-09-07T01:24:06.799Z,34.26
2022-09-07T01:24:36.818Z,34.23
2022-09-07T01:25:06.837Z,34.16
2022-09-07T01:25:36.857Z,34.26
2022-09-07T01:26:06.873Z,34.23
2022-09-07T01:26:36.891Z,34.16
2022-09-07T01:27:06.913Z,34.10
2022-09-07T01:27:36.927Z,34.18
2022-09-07T01:28:06.945Z,34.14
2022-09-07T01:28:36.962Z,34.18
2022-09-07T01:29:06.988Z,34.10
2022-09-07T01:29:37.005Z,34.20
2022-09-07T01:30:07.025Z,34.19
2022-09-07T01:30:37.043Z,34.15
2022-09-07T01:31:07.132Z,34.18
2022-09-07T01:31:37.260Z,34.13
2022-09-07T01:32:07.269Z,34.20
2022-09-07T01:32:37.285Z,34.19
2022-09-07T01:33:07.302Z,34.17
2022-09-07T01:33:37.320Z,34.12
2022-09-07T01:34:07.351Z,34.19
2022-09-07T01:34:37.368Z,34.21
2022-09-07T01:35:07.390Z,34.20
2022-09-07T01:35:37.404Z,34.20
2022-09-07T01:36:07.433Z,34.22
2022-09-07T01:36:37.448Z,34.15
2022-09-07T01:37:07.466Z,34.18
2022-09-07T01:37:37.487Z,34.18
2022-09-07T01:38:07.527Z,34.27
2022-09-07T01:38:37.549Z,34.19
2022-09-07T01:39:07.566Z,34.22
2022-09-07T01:39:37.697Z,34.19
2022-09-07T01:40:07.646Z,34.21
2022-09-07T01:40:37.682Z,34.22
2022-09-07T01:41:07.705Z,34.18
2022-09-07T01:41:37.727Z,34.28
2022-09-07T01:42:07.750Z,34.24
2022-09-07T01:42:37.855Z,34.30
2022-09-07T01:43:07.963Z,34.20
2022-09-07T01:43:38.072Z,34.21
2022-09-07T01:44:08.177Z,34.22
2022-09-07T01:44:38.295Z,34.18
2022-09-07T01:45:08.274Z,34.21
2022-09-07T01:45:38.383Z,34.24
2022-09-07T01:46:08.562Z,34.24
2022-09-07T01:46:38.619Z,34.21
2022-09-07T01:47:08.601Z,34.32
2022-09-07T01:47:38.710Z,34.24
2022-09-07T01:48:08.819Z,34.21
2022-09-07T01:48:38.929Z,34.20
2022-09-07T01:49:09.031Z,34.27
2022-09-07T01:49:39.157Z,34.20
2022-09-07T01:50:09.139Z,34.31
2022-09-07T01:50:39.249Z,34.19
2022-09-07T01:51:09.350Z,34.20
2022-09-07T01:51:39.460Z,34.25
2022-09-07T01:52:09.577Z,34.28
2022-09-07T01:52:39.590Z,34.25
2022-09-07T01:53:09.606Z,34.25
2022-09-07T01:53:39.624Z,34.30
2022-09-07T01:54:09.638Z,34.25
2022-09-07T01:54:39.658Z,34.30
2022-09-07T01:55:09.671Z,34.22
2022-09-07T01:55:39.689Z,34.22
2022-09-07T01:56:09.705Z,34.24
2022-09-07T01:56:39.726Z,34.27
2022-09-07T01:57:09.741Z,34.24
2022-09-07T01:57:39.761Z,34.27
2022-09-07T01:58:09.949Z,34.28
2022-09-07T01:58:39.848Z,34.20
2022-09-07T01:59:09.863Z,34.20
2022-09-07T01:59:39.884Z,34.25
2022-09-07T02:00:09.920Z,34.28
2022-09-07T02:00:39.917Z,34.27
2022-09-07T02:01:09.934Z,34.20
2022-09-07T02:01:39.992Z,34.30
2022-09-07T02:02:10.106Z,34.28
2022-09-07T02:02:40.201Z,34.25
2022-09-07T02:03:10.219Z,34.28
2022-09-07T02:03:40.209Z,34.33
2022-09-07T02:04:10.226Z,34.25
2022-09-07T02:04:40.247Z,34.31
2022-09-07T02:05:10.261Z,34.23
2022-09-07T02:05:40.280Z,34.25
2022-09-07T02:06:10.296Z,34.30
2022-09-07T02:06:40.312Z,34.30
2022-09-07T02:07:10.327Z,34.30
2022-09-07T02:07:40.351Z,34.30
2022-09-07T02:08:10.367Z,34.30
2022-09-07T02:08:40.385Z,34.26
2022-09-07T02:09:10.401Z,34.30
2022-09-07T02:09:40.424Z,34.34
2022-09-07T02:10:10.442Z,34.30
2022-09-07T02:10:40.460Z,34.30
2022-09-07T02:11:10.472Z,34.25
2022-09-07T02:11:40.494Z,34.37
2022-09-07T02:12:10.512Z,34.28
2022-09-07T02:12:40.526Z,34.31
2022-09-07T02:13:10.544Z,34.32
2022-09-07T02:13:40.565Z,34.32
2022-09-07T02:14:10.585Z,34.32
2022-09-07T02:14:40.606Z,34.26
2022-09-07T02:15:10.618Z,34.32
2022-09-07T02:15:40.709Z,34.28
2022-09-07T02:16:10.774Z,34.50
2022-09-07T02:16:40.773Z,34.32
2022-09-07T02:17:10.789Z,34.29
2022-09-07T02:17:40.807Z,34.29
2022-09-07T02:18:10.822Z,34.28
2022-09-07T02:18:40.843Z,34.39
2022-09-07T02:19:10.860Z,34.34
2022-09-07T02:19:40.875Z,34.31
2022-09-07T02:20:10.891Z,34.32
2022-09-07T02:20:40.913Z,34.29
2022-09-07T02:21:10.932Z,34.31
2022-09-07T02:21:40.950Z,34.28
2022-09-07T02:22:10.967Z,34.26
2022-09-07T02:22:40.992Z,34.34
2022-09-07T02:23:10.999Z,34.29
2022-09-07T02:23:41.023Z,34.23
2022-09-07T02:24:11.042Z,34.29
2022-09-07T02:24:41.055Z,34.31
2022-09-07T02:25:11.073Z,34.26
2022-09-07T02:25:41.092Z,34.31
2022-09-07T02:26:11.106Z,34.28
2022-09-07T02:26:41.120Z,34.29
2022-09-07T02:27:11.137Z,34.26
2022-09-07T02:27:41.159Z,34.28
2022-09-07T02:28:11.185Z,34.39
2022-09-07T02:28:41.210Z,34.37
2022-09-07T02:29:11.221Z,34.32
2022-09-07T02:29:41.245Z,34.32
2022-09-07T02:30:11.260Z,34.40
2022-09-07T02:30:41.373Z,34.37
2022-09-07T02:31:11.487Z,34.31
2022-09-07T02:31:41.398Z,34.35
2022-09-07T02:32:11.415Z,34.38
2022-09-07T02:32:41.430Z,34.34
2022-09-07T02:33:11.448Z,34.37
2022-09-07T02:33:41.468Z,34.30
2022-09-07T02:34:11.486Z,34.26
2022-09-07T02:34:41.503Z,34.38
2022-09-07T02:35:11.519Z,34.31
2022-09-07T02:35:41.535Z,34.29
2022-09-07T02:36:11.550Z,34.37
2022-09-07T02:36:41.573Z,34.40
2022-09-07T02:37:11.594Z,34.32
2022-09-07T02:37:41.612Z,34.40
2022-09-07T02:38:11.627Z,34.37
2022-09-07T02:38:41.654Z,34.37
2022-09-07T02:39:11.674Z,34.34
2022-09-07T02:39:41.770Z,34.32
2022-09-07T02:40:11.842Z,34.34
2022-09-07T02:40:41.878Z,34.34
2022-09-07T02:41:11.884Z,34.32
2022-09-07T02:41:41.904Z,34.37
2022-09-07T02:42:11.901Z,34.29
2022-09-07T02:42:42.012Z,34.33
2022-09-07T02:43:12.113Z,34.29
2022-09-07T02:43:42.240Z,34.30
2022-09-07T02:44:12.338Z,34.26
2022-09-07T02:44:42.453Z,34.37
2022-09-07T02:45:12.552Z,34.37
2022-09-07T02:45:42.654Z,34.39
2022-09-07T02:46:12.829Z,34.43
2022-09-07T02:46:42.815Z,34.38
2022-09-07T02:47:12.808Z,34.41
2022-09-07T02:47:42.915Z,34.40
2022-09-07T02:48:13.019Z,34.30
2022-09-07T02:48:43.172Z,34.36
2022-09-07T02:49:13.198Z,34.32
2022-09-07T02:49:43.303Z,34.41
2022-09-07T02:50:13.407Z,34.42
2022-09-07T02:50:43.519Z,34.32
2022-09-07T02:51:13.627Z,34.37
2022-09-07T02:51:43.731Z,34.40
2022-09-07T02:52:13.728Z,34.38
2022-09-07T02:52:43.745Z,34.38
2022-09-07T02:53:13.759Z,34.36
2022-09-07T02:53:43.790Z,34.39
2022-09-07T02:54:13.809Z,34.40
2022-09-07T02:54:43.828Z,34.37
2022-09-07T02:55:13.845Z,34.38
2022-09-07T02:55:43.871Z,34.35
2022-09-07T02:56:13.888Z,34.38
2022-09-07T02:56:43.905Z,34.33
2022-09-07T02:57:13.926Z,34.39
2022-09-07T02:57:43.948Z,34.36
2022-09-07T02:58:13.965Z,34.44
2022-09-07T02:58:43.990Z,34.38
2022-09-07T02:59:14.006Z,34.38
2022-09-07T02:59:44.028Z,34.35
2022-09-07T03:00:14.045Z,34.30
2022-09-07T03:00:44.065Z,34.42
2022-09-07T03:01:14.132Z,34.41
2022-09-07T03:01:44.223Z,34.38
2022-09-07T03:02:14.270Z,34.44
2022-09-07T03:02:44.334Z,34.39
2022-09-07T03:03:14.346Z,34.38
2022-09-07T03:03:44.370Z,34.33
2022-09-07T03:04:14.386Z,34.39
2022-09-07T03:04:44.407Z,34.36
2022-09-07T03:05:14.424Z,34.38
2022-09-07T03:05:44.443Z,34.38
2022-09-07T03:06:14.455Z,34.35
2022-09-07T03:06:44.475Z,34.38
2022-09-07T03:07:14.492Z,34.34
2022-09-07T03:07:44.513Z,34.39
2022-09-07T03:08:14.535Z,34.41
2022-09-07T03:08:44.549Z,34.38
2022-09-07T03:09:14.565Z,34.34
2022-09-07T03:09:44.583Z,34.39
2022-09-07T03:10:14.600Z,34.41
2022-09-07T03:10:44.618Z,34.38
2022-09-07T03:11:14.632Z,34.36
2022-09-07T03:11:44.653Z,34.31
2022-09-07T03:12:14.678Z,34.36
2022-09-07T03:12:44.690Z,34.39
2022-09-07T03:13:14.709Z,34.39
2022-09-07T03:13:44.733Z,34.41
2022-09-07T03:14:14.744Z,34.38
2022-09-07T03:14:44.758Z,34.40
2022-09-07T03:15:14.778Z,34.41
2022-09-07T03:15:44.818Z,34.36
2022-09-07T03:16:14.852Z,34.41
2022-09-07T03:16:44.870Z,34.41
2022-09-07T03:17:14.882Z,34.39
2022-09-07T03:17:44.897Z,34.39
2022-09-07T03:18:14.917Z,34.40
2022-09-07T03:18:44.937Z,34.42
2022-09-07T03:19:14.958Z,34.40
2022-09-07T03:19:44.973Z,34.41
2022-09-07T03:20:14.990Z,34.36
2022-09-07T03:20:45.013Z,34.38
2022-09-07T03:21:15.031Z,34.41
2022-09-07T03:21:45.051Z,34.37
2022-09-07T03:22:15.066Z,34.38
2022-09-07T03:22:45.091Z,34.39
2022-09-07T03:23:15.116Z,34.36
2022-09-07T03:23:48.805Z,34.37
2022-09-07T03:24:15.173Z,34.41
2022-09-07T03:24:45.194Z,34.42
2022-09-07T03:25:15.213Z,34.38
2022-09-07T03:25:45.228Z,34.40
2022-09-07T03:26:15.243Z,34.40
2022-09-07T03:26:45.257Z,34.40
2022-09-07T03:27:15.280Z,34.29
2022-09-07T03:27:45.294Z,34.43
2022-09-07T03:28:15.319Z,34.39
2022-09-07T03:28:45.342Z,34.39
2022-09-07T03:29:15.357Z,34.39
2022-09-07T03:29:45.383Z,34.42
2022-09-07T03:30:15.401Z,34.39
2022-09-07T03:30:45.485Z,34.39
2022-09-07T03:31:15.530Z,34.40
2022-09-07T03:31:45.571Z,34.43
2022-09-07T03:32:15.587Z,34.43
2022-09-07T03:32:45.601Z,34.41
2022-09-07T03:33:15.629Z,34.43
2022-09-07T03:33:45.652Z,34.39
2022-09-07T03:34:15.676Z,34.36
2022-09-07T03:34:45.696Z,34.37
2022-09-07T03:35:15.713Z,34.37
2022-09-07T03:35:45.736Z,34.42
2022-09-07T03:36:15.763Z,34.42
2022-09-07T03:36:45.781Z,34.37
2022-09-07T03:37:15.802Z,34.40
2022-09-07T03:37:45.819Z,34.39
2022-09-07T03:38:15.845Z,34.41
2022-09-07T03:38:45.861Z,34.40
2022-09-07T03:39:15.878Z,34.45
2022-09-07T03:39:45.962Z,34.41
2022-09-07T03:40:16.028Z,34.40
2022-09-07T03:40:46.046Z,34.39
2022-09-07T03:41:16.058Z,34.39
2022-09-07T03:41:46.083Z,34.39
2022-09-07T03:42:16.088Z,34.43
2022-09-07T03:42:46.194Z,34.40
2022-09-07T03:43:16.302Z,34.40
2022-09-07T03:43:46.406Z,34.43
2022-09-07T03:44:16.513Z,34.41
2022-09-07T03:44:46.618Z,34.35
2022-09-07T03:45:16.720Z,34.40
2022-09-07T03:45:46.885Z,34.44
2022-09-07T03:46:16.906Z,34.44
2022-09-07T03:46:46.880Z,34.41
2022-09-07T03:47:16.988Z,34.41
2022-09-07T03:47:47.091Z,34.41
2022-09-07T03:48:17.203Z,34.35
2022-09-07T03:48:47.310Z,34.38
2022-09-07T03:49:17.418Z,34.43
2022-09-07T03:49:47.519Z,34.41
2022-09-07T03:50:17.622Z,34.37
2022-09-07T03:50:47.731Z,34.37
2022-09-07T03:51:17.843Z,34.37
2022-09-07T03:51:47.947Z,34.41
2022-09-07T03:52:17.940Z,34.33
2022-09-07T03:52:47.959Z,34.32
2022-09-07T03:53:17.990Z,34.41
2022-09-07T03:53:48.014Z,34.43
2022-09-07T03:54:18.029Z,34.41
2022-09-07T03:54:48.047Z,34.40
2022-09-07T03:55:18.058Z,34.44
2022-09-07T03:55:48.072Z,34.38
2022-09-07T03:56:18.097Z,34.43
2022-09-07T03:56:48.107Z,34.41
2022-09-07T03:57:18.126Z,34.38
2022-09-07T03:57:48.140Z,34.38
2022-09-07T03:58:18.187Z,34.37
2022-09-07T03:58:48.202Z,34.35
2022-09-07T03:59:18.216Z,34.40
2022-09-07T03:59:48.238Z,34.44
2022-09-07T04:00:18.255Z,34.44
2022-09-07T04:00:48.264Z,34.41
2022-09-07T04:01:18.351Z,34.38
2022-09-07T04:01:48.329Z,34.42
2022-09-07T04:02:18.421Z,34.42
2022-09-07T04:02:48.519Z,34.41
2022-09-07T04:03:18.445Z,34.39
2022-09-07T04:03:48.463Z,34.41
2022-09-07T04:04:18.479Z,34.38
2022-09-07T04:04:48.519Z,34.39
2022-09-07T04:05:18.596Z,34.42
2022-09-07T04:05:48.612Z,34.39
2022-09-07T04:06:18.627Z,34.39
2022-09-07T04:06:48.643Z,34.39
2022-09-07T04:07:18.669Z,34.39
2022-09-07T04:07:48.692Z,34.41
2022-09-07T04:08:18.718Z,34.38
2022-09-07T04:08:48.734Z,34.36
2022-09-07T04:09:18.750Z,34.33
2022-09-07T04:09:48.768Z,34.36
2022-09-07T04:10:18.784Z,34.38
2022-09-07T04:10:48.800Z,34.36
2022-09-07T04:11:18.814Z,34.37
2022-09-07T04:11:48.832Z,34.40
2022-09-07T04:12:18.849Z,34.40
2022-09-07T04:12:48.865Z,34.33
2022-09-07T04:13:18.886Z,34.42
2022-09-07T04:13:48.908Z,34.38
2022-09-07T04:14:18.926Z,34.40
2022-09-07T04:14:48.944Z,34.40
2022-09-07T04:15:18.967Z,34.45
2022-09-07T04:15:53.302Z,34.32
2022-09-07T04:16:19.077Z,34.45
2022-09-07T04:16:49.175Z,34.43
2022-09-07T04:17:19.088Z,34.46
2022-09-07T04:17:49.108Z,34.45
2022-09-07T04:18:19.127Z,34.41
2022-09-07T04:18:49.150Z,34.38
2022-09-07T04:19:19.173Z,34.48
2022-09-07T04:19:49.187Z,34.46
2022-09-07T04:20:19.202Z,34.46
2022-09-07T04:20:49.213Z,34.49
2022-09-07T04:21:19.234Z,34.44
2022-09-07T04:21:49.256Z,34.46
2022-09-07T04:22:19.279Z,34.40
2022-09-07T04:22:52.548Z,34.43
2022-09-07T04:23:19.339Z,34.44
2022-09-07T04:23:49.364Z,34.44
2022-09-07T04:24:19.382Z,34.43
2022-09-07T04:24:49.397Z,34.51
2022-09-07T04:25:19.412Z,34.52
2022-09-07T04:25:49.426Z,34.47
2022-09-07T04:26:19.445Z,34.49
2022-09-07T04:26:49.463Z,34.54
2022-09-07T04:27:19.480Z,34.58
2022-09-07T04:27:49.501Z,34.55
2022-09-07T04:28:19.520Z,34.52
2022-09-07T04:28:49.543Z,34.71
2022-09-07T04:29:19.566Z,34.92
2022-09-07T04:29:49.582Z,34.99
2022-09-07T04:30:19.596Z,35.19
2022-09-07T04:30:49.679Z,34.95
2022-09-07T04:31:19.741Z,35.10
2022-09-07T04:31:49.674Z,35.48
2022-09-07T04:32:19.745Z,35.43
2022-09-07T04:32:49.792Z,35.45
2022-09-07T04:33:19.827Z,35.79
2022-09-07T04:33:49.908Z,35.75
2022-09-07T04:34:19.973Z,35.61
2022-09-07T04:34:50.031Z,35.73
2022-09-07T04:35:20.069Z,35.66
2022-09-07T04:35:50.088Z,36.18
2022-09-07T04:36:20.112Z,36.30
2022-09-07T04:36:50.123Z,36.28
2022-09-07T04:37:20.138Z,36.21
2022-09-07T04:37:50.160Z,36.22
2022-09-07T04:38:20.181Z,36.37
2022-09-07T04:38:50.202Z,36.53
2022-09-07T04:39:20.217Z,36.75
2022-09-07T04:39:50.286Z,36.66
2022-09-07T04:40:20.290Z,36.87
2022-09-07T04:40:50.309Z,37.00
2022-09-07T04:41:20.327Z,36.92
2022-09-07T04:41:50.356Z,37.14
2022-09-07T04:42:20.336Z,36.98
2022-09-07T04:42:50.444Z,37.12
2022-09-07T04:43:20.552Z,37.26
2022-09-07T04:43:50.666Z,37.06
2022-09-07T04:44:20.772Z,37.11
2022-09-07T04:44:50.872Z,37.49
2022-09-07T04:45:20.980Z,37.36
2022-09-07T04:45:51.184Z,37.17
2022-09-07T04:46:21.231Z,37.45
2022-09-07T04:46:51.195Z,37.62
2022-09-07T04:47:21.297Z,37.57
2022-09-07T04:47:51.407Z,37.26
2022-09-07T04:48:21.516Z,37.48
2022-09-07T04:48:51.617Z,37.60
2022-09-07T04:49:21.722Z,37.61
2022-09-07T04:49:51.827Z,37.74
2022-09-07T04:50:21.936Z,37.68
2022-09-07T04:50:52.053Z,37.76
2022-09-07T04:51:22.149Z,37.87
2022-09-07T04:51:52.245Z,37.25
2022-09-07T04:52:22.264Z,37.56
2022-09-07T04:52:52.281Z,38.02
2022-09-07T04:53:22.300Z,37.96
2022-09-07T04:53:52.317Z,37.92
2022-09-07T04:54:22.339Z,37.90
2022-09-07T04:54:52.355Z,37.90
2022-09-07T04:55:22.380Z,37.98
2022-09-07T04:55:52.385Z,38.02
2022-09-07T04:56:22.405Z,38.09
2022-09-07T04:56:52.497Z,38.08
2022-09-07T04:57:22.518Z,37.94
2022-09-07T04:57:52.540Z,37.82
2022-09-07T04:58:22.561Z,38.03
2022-09-07T04:58:52.580Z,38.20
2022-09-07T04:59:22.599Z,37.92
2022-09-07T04:59:52.614Z,38.49
2022-09-07T05:00:22.628Z,38.08
2022-09-07T05:00:52.706Z,38.30
2022-09-07T05:01:22.750Z,38.23
2022-09-07T05:01:52.801Z,38.34
2022-09-07T05:02:22.902Z,38.28
2022-09-07T05:02:52.833Z,38.46
2022-09-07T05:03:22.860Z,38.28
2022-09-07T05:03:52.875Z,38.28
2022-09-07T05:04:22.897Z,38.51
2022-09-07T05:04:52.910Z,38.25
2022-09-07T05:05:22.930Z,38.32
2022-09-07T05:05:52.942Z,38.43
2022-09-07T05:06:22.963Z,38.43
2022-09-07T05:06:52.983Z,38.55
2022-09-07T05:07:23.003Z,38.52
2022-09-07T05:07:53.024Z,38.35
2022-09-07T05:08:23.045Z,38.66
2022-09-07T05:08:53.068Z,38.49
2022-09-07T05:09:23.085Z,38.49
2022-09-07T05:09:53.126Z,38.66
2022-09-07T05:10:23.172Z,38.62
2022-09-07T05:10:53.204Z,38.67
2022-09-07T05:11:27.931Z,38.63
2022-09-07T05:11:53.261Z,38.64
2022-09-07T05:12:23.276Z,38.80
2022-09-07T05:12:53.296Z,38.73
2022-09-07T05:13:23.332Z,38.68
2022-09-07T05:13:53.368Z,38.93
2022-09-07T05:14:23.381Z,38.49
2022-09-07T05:14:53.392Z,38.83
2022-09-07T05:15:23.413Z,38.83
2022-09-07T05:15:53.428Z,38.86
2022-09-07T05:16:23.523Z,38.97
2022-09-07T05:16:53.591Z,38.79
2022-09-07T05:17:23.611Z,38.91
2022-09-07T05:17:53.633Z,38.99
2022-09-07T05:18:23.674Z,38.95
2022-09-07T05:18:53.672Z,38.97
2022-09-07T05:19:23.685Z,38.91
2022-09-07T05:19:53.706Z,39.01
2022-09-07T05:20:23.732Z,38.88
2022-09-07T05:20:53.769Z,38.97
2022-09-07T05:21:23.783Z,38.98
2022-09-07T05:21:53.799Z,39.04
2022-09-07T05:22:23.833Z,38.91
2022-09-07T05:22:53.848Z,39.07
2022-09-07T05:23:23.864Z,39.08
2022-09-07T05:23:53.874Z,38.87
2022-09-07T05:24:23.891Z,39.11
2022-09-07T05:24:53.904Z,39.07
2022-09-07T05:25:23.919Z,39.05
2022-09-07T05:25:53.933Z,39.05
2022-09-07T05:26:23.945Z,39.09
2022-09-07T05:26:53.968Z,39.11
2022-09-07T05:27:23.991Z,38.92
2022-09-07T05:27:54.008Z,39.25
2022-09-07T05:28:24.034Z,39.15
2022-09-07T05:30:02.069Z,39.03
2022-09-07T05:31:24.211Z,39.18
2022-09-07T05:31:54.232Z,39.25
2022-09-07T05:32:24.266Z,39.19
2022-09-07T05:32:54.276Z,39.11
2022-09-07T05:34:32.331Z,39.00
2022-09-07T05:34:54.402Z,39.18
2022-09-07T05:35:24.416Z,39.28
2022-09-07T05:35:54.424Z,39.22
2022-09-07T05:36:24.442Z,39.18
2022-09-07T05:36:54.459Z,39.32
2022-09-07T05:37:24.476Z,39.07
2022-09-07T05:37:54.492Z,39.17
2022-09-07T05:38:24.546Z,38.86
2022-09-07T05:38:54.532Z,39.17
2022-09-07T05:39:24.550Z,39.32
2022-09-07T05:39:54.655Z,39.15
2022-09-07T05:40:24.649Z,39.19
2022-09-07T05:40:54.668Z,39.56
2022-09-07T05:41:24.691Z,39.47
2022-09-07T05:41:54.708Z,39.60
2022-09-07T05:42:24.825Z,39.07
2022-09-07T05:42:54.924Z,39.49
2022-09-07T05:43:25.027Z,39.20
2022-09-07T05:44:55.131Z,39.38
2022-09-07T05:45:25.238Z,39.40
2022-09-07T05:45:55.399Z,39.43
2022-09-07T05:46:25.390Z,39.46
2022-09-07T05:46:55.494Z,39.29
2022-09-07T05:47:25.612Z,39.23
2022-09-07T05:47:55.595Z,39.12
2022-09-07T05:48:25.700Z,38.99
2022-09-07T05:48:55.797Z,38.81
2022-09-07T05:49:25.904Z,38.82
2022-09-07T05:49:57.131Z,38.83
2022-09-07T05:50:26.108Z,39.35
2022-09-07T05:50:56.207Z,39.51
2022-09-07T05:51:26.312Z,39.38
2022-09-07T05:51:56.416Z,39.28
2022-09-07T05:52:26.423Z,39.39
2022-09-07T05:52:56.433Z,39.22
2022-09-07T05:53:26.451Z,39.00
2022-09-07T05:53:56.466Z,38.88
2022-09-07T05:54:26.480Z,38.85
2022-09-07T05:55:07.445Z,38.76
2022-09-07T05:55:30.623Z,38.59
2022-09-07T05:55:56.562Z,38.52
2022-09-07T05:56:26.575Z,38.90
2022-09-07T05:56:56.587Z,38.78
2022-09-07T05:57:26.608Z,38.45
2022-09-07T05:57:56.625Z,38.19
2022-09-07T05:58:26.655Z,38.57
2022-09-07T05:58:56.672Z,38.74
2022-09-07T05:59:26.694Z,38.77
2022-09-07T05:59:56.709Z,39.09
2022-09-07T06:00:26.728Z,38.85
2022-09-07T06:00:56.750Z,39.18
2022-09-07T06:01:26.767Z,38.83
2022-09-07T06:01:56.928Z,39.05
2022-09-07T06:02:26.991Z,38.95
2022-09-07T06:02:57.034Z,38.45
2022-09-07T06:03:27.000Z,38.76
2022-09-07T06:03:57.007Z,38.66
2022-09-07T06:04:27.029Z,39.03
2022-09-07T06:04:57.039Z,38.45
2022-09-07T06:05:27.060Z,38.37
2022-09-07T06:05:57.083Z,38.47
2022-09-07T06:06:27.102Z,38.36
2022-09-07T06:07:26.435Z,39.13
2022-09-07T06:07:27.151Z,39.08
2022-09-07T06:07:57.184Z,38.89
2022-09-07T06:08:27.352Z,38.78
2022-09-07T06:08:57.298Z,38.87
2022-09-07T06:09:30.517Z,38.78
2022-09-07T06:10:57.455Z,39.10
2022-09-07T06:11:27.494Z,39.23
2022-09-07T06:11:57.489Z,39.19
2022-09-07T06:12:27.502Z,39.06
2022-09-07T06:12:57.525Z,38.93
2022-09-07T06:13:27.590Z,38.59
2022-09-07T06:13:57.575Z,39.00
2022-09-07T06:14:27.589Z,39.05
2022-09-07T06:14:57.610Z,38.95
2022-09-07T06:15:27.633Z,38.98
2022-09-07T06:15:57.652Z,39.08
2022-09-07T06:16:27.729Z,38.66
2022-09-07T06:16:57.721Z,38.54
2022-09-07T06:17:27.746Z,38.59
2022-09-07T06:17:57.766Z,38.22
2022-09-07T06:18:27.787Z,38.35
2022-09-07T06:18:57.807Z,38.38
2022-09-07T06:19:27.869Z,38.61
2022-09-07T06:19:57.848Z,38.94
2022-09-07T06:20:27.868Z,38.66
2022-09-07T06:20:57.899Z,38.56
2022-09-07T06:21:27.912Z,38.11
2022-09-07T06:21:57.931Z,38.90
2022-09-07T06:22:30.971Z,39.15
2022-09-07T06:22:57.975Z,38.74
2022-09-07T06:23:28.009Z,38.90
2022-09-07T06:23:58.027Z,38.75
2022-09-07T06:24:28.034Z,38.52
2022-09-07T06:24:58.051Z,38.15
2022-09-07T06:25:28.062Z,38.49
2022-09-07T06:25:58.083Z,39.04
2022-09-07T06:26:28.096Z,38.69
2022-09-07T06:26:58.111Z,38.55
2022-09-07T06:27:28.133Z,38.70
2022-09-07T06:27:58.142Z,38.98
2022-09-07T06:28:28.156Z,38.94
2022-09-07T06:28:58.179Z,38.89
2022-09-07T06:29:28.196Z,38.85
2022-09-07T06:29:58.214Z,38.47
2022-09-07T06:30:28.227Z,38.88
2022-09-07T06:30:58.241Z,39.31
2022-09-07T06:31:28.457Z,39.27